createdAt,value
2023-02-24T00:02:06.421Z,11.93
2023-02-24T00:04:40.072Z,12.75
2023-02-24T00:07:13.253Z,13.13
2023-02-24T00:09:41.429Z,13.68
2023-02-24T00:12:15.858Z,13.38
2023-02-24T00:14:46.216Z,14.68
2023-02-24T00:17:14.915Z,13.27
2023-02-24T00:19:43.533Z,13.98
2023-02-24T00:22:11.731Z,13.25
2023-02-24T00:24:40.278Z,13.13
2023-02-24T00:27:11.818Z,13.57
2023-02-24T00:29:42.133Z,13.02
2023-02-24T00:32:13.729Z,11.85
2023-02-24T00:37:12.246Z,11.98
2023-02-24T00:39:42.090Z,12.70
2023-02-24T00:42:12.260Z,12.48
2023-02-24T00:44:46.536Z,13.80
2023-02-24T00:47:17.678Z,12.13
2023-02-24T00:49:46.105Z,14.48
2023-02-24T00:52:20.835Z,12.25
2023-02-24T00:54:50.885Z,13.73
2023-02-24T00:57:21.522Z,11.93
2023-02-24T00:59:52.414Z,13.20
2023-02-24T01:02:21.515Z,11.55
2023-02-24T01:04:51.227Z,13.45
2023-02-24T01:07:19.350Z,12.30
2023-02-24T01:09:51.191Z,14.88
2023-02-24T01:12:22.528Z,12.55
2023-02-24T01:14:53.163Z,13.95
2023-02-24T01:17:22.977Z,12.85
2023-02-24T01:19:52.225Z,13.77
2023-02-24T01:22:21.897Z,12.52
2023-02-24T01:24:50.124Z,12.90
2023-02-24T01:27:19.670Z,12.52
2023-02-24T01:29:48.752Z,14.63
2023-02-24T01:32:20.928Z,12.88
2023-02-24T01:34:52.765Z,14.20
2023-02-24T01:37:21.724Z,12.07
2023-02-24T01:39:50.420Z,14.13
2023-02-24T01:42:22.218Z,12.55
2023-02-24T01:44:52.386Z,13.75
2023-02-24T01:47:23.060Z,12.98
2023-02-24T01:49:54.954Z,13.87
2023-02-24T01:55:09.380Z,13.20
2023-02-24T01:57:39.604Z,13.07
2023-02-24T02:00:12.677Z,13.77
2023-02-24T02:02:50.736Z,12.57
2023-02-24T02:05:19.419Z,11.73
2023-02-24T02:07:47.450Z,13.73
2023-02-24T02:10:15.556Z,12.48
2023-02-24T02:12:45.113Z,14.45
2023-02-24T02:15:20.415Z,13.75
2023-02-24T02:18:24.664Z,14.57
2023-02-24T02:21:36.903Z,12.73
2023-02-24T02:24:34.454Z,14.82
2023-02-24T02:27:29.546Z,13.35
2023-02-24T02:30:06.363Z,13.13
2023-02-24T02:33:31.650Z,12.90
2023-02-24T02:36:22.869Z,14.23
2023-02-24T02:39:03.348Z,12.27
2023-02-24T02:42:14.423Z,11.05
2023-02-24T02:45:23.157Z,13.18
2023-02-24T02:48:31.477Z,12.77
2023-02-24T02:51:11.366Z,12.90
2023-02-24T02:54:15.939Z,12.75
2023-02-24T02:56:53.816Z,13.02
2023-02-24T02:59:29.943Z,12.32
2023-02-24T03:02:11.859Z,13.07
2023-02-24T03:04:54.780Z,13.25
2023-02-24T03:07:31.123Z,11.85
2023-02-24T03:10:11.010Z,10.73
2023-02-24T03:12:41.405Z,11.30
2023-02-24T03:15:13.130Z,12.30
2023-02-24T03:23:16.841Z,12.50
2023-02-24T03:26:00.464Z,10.70
2023-02-24T03:28:39.230Z,11.52
2023-02-24T03:31:23.144Z,11.88
2023-02-24T03:34:06.809Z,12.95
2023-02-24T03:36:35.801Z,9.60
2023-02-24T03:39:11.345Z,11.77
2023-02-24T03:42:01.376Z,11.30
2023-02-24T03:44:32.339Z,10.52
2023-02-24T03:47:02.424Z,12.68
2023-02-24T03:49:30.502Z,10.23
2023-02-24T03:52:39.316Z,10.98
2023-02-24T03:55:40.545Z,10.73
2023-02-24T03:58:23.526Z,11.38
2023-02-24T04:01:20.021Z,12.40
2023-02-24T04:04:10.097Z,11.50
2023-02-24T04:07:15.070Z,11.82
2023-02-24T04:10:11.030Z,11.23
2023-02-24T04:12:53.924Z,10.77
2023-02-24T04:15:44.108Z,11.55
2023-02-24T04:18:22.661Z,10.75
2023-02-24T04:20:53.524Z,11.73
2023-02-24T04:23:31.880Z,10.98
2023-02-24T04:26:01.969Z,10.65
2023-02-24T04:28:31.435Z,11.13
2023-02-24T04:31:10.745Z,11.73
2023-02-24T04:33:40.748Z,10.55
2023-02-24T04:36:13.066Z,10.88
2023-02-24T04:38:41.361Z,11.75
2023-02-24T04:41:10.491Z,10.30
2023-02-24T04:43:38.663Z,11.25
2023-02-24T04:46:08.209Z,10.32
2023-02-24T04:48:36.592Z,10.40
2023-02-24T04:51:06.753Z,10.10
2023-02-24T04:53:34.714Z,11.48
2023-02-24T04:56:09.409Z,10.00
2023-02-24T04:58:41.620Z,10.57
2023-02-24T05:01:11.218Z,10.48
2023-02-24T05:03:42.892Z,11.00
2023-02-24T05:08:45.101Z,11.85
2023-02-24T05:11:18.974Z,11.45
2023-02-24T05:13:47.329Z,11.63
2023-02-24T05:16:20.656Z,9.75
2023-02-24T05:18:48.977Z,12.50
2023-02-24T05:21:36.585Z,9.95
2023-02-24T05:24:07.124Z,12.05
2023-02-24T05:29:12.616Z,11.48
2023-02-24T05:31:40.741Z,9.88
2023-02-24T05:34:09.136Z,9.65
2023-02-24T05:36:41.288Z,10.02
2023-02-24T05:39:12.652Z,10.48
2023-02-24T05:41:43.088Z,9.52
2023-02-24T05:44:17.301Z,9.35
2023-02-24T05:46:47.211Z,10.18
2023-02-24T05:49:27.459Z,10.20
2023-02-24T05:52:05.748Z,9.65
2023-02-24T05:54:45.558Z,10.32
2023-02-24T05:57:19.163Z,9.30
2023-02-24T05:59:56.196Z,10.15
2023-02-24T06:02:37.533Z,9.23
2023-02-24T06:05:09.084Z,9.52
2023-02-24T06:10:10.672Z,8.38
2023-02-24T06:12:40.068Z,9.13
2023-02-24T06:15:08.795Z,9.55
2023-02-24T06:17:37.279Z,8.82
2023-02-24T06:20:15.129Z,9.55
2023-02-24T06:22:43.376Z,11.60
2023-02-24T06:25:12.150Z,8.98
2023-02-24T06:27:40.724Z,10.05
2023-02-24T06:30:10.677Z,14.85
2023-02-24T06:32:39.071Z,9.70
2023-02-24T06:35:08.758Z,9.38
2023-02-24T06:37:37.388Z,9.27
2023-02-24T06:40:16.098Z,10.00
2023-02-24T06:42:51.152Z,10.93
2023-02-24T06:45:19.263Z,10.02
2023-02-24T06:47:49.037Z,10.57
2023-02-24T06:50:20.427Z,9.27
2023-02-24T06:52:49.920Z,9.95
2023-02-24T06:55:25.664Z,8.57
2023-02-24T06:57:59.665Z,8.77
2023-02-24T07:00:42.906Z,9.75
2023-02-24T07:03:16.685Z,9.90
2023-02-24T07:05:54.599Z,10.40
2023-02-24T07:08:27.405Z,10.07
2023-02-24T07:11:00.062Z,9.95
2023-02-24T07:13:30.028Z,11.77
2023-02-24T07:16:07.390Z,10.18
2023-02-24T07:18:37.206Z,8.82
2023-02-24T07:21:11.649Z,10.50
2023-02-24T07:23:41.830Z,9.95
2023-02-24T07:26:19.569Z,11.18
2023-02-24T07:28:48.209Z,10.77
2023-02-24T07:31:21.579Z,10.38
2023-02-24T07:33:54.095Z,11.07
2023-02-24T07:36:30.446Z,10.52
2023-02-24T07:38:59.560Z,10.15
2023-02-24T07:41:30.449Z,9.75
2023-02-24T07:46:29.518Z,9.15
2023-02-24T07:49:00.024Z,10.13
2023-02-24T07:51:29.952Z,9.27
2023-02-24T07:54:01.490Z,8.63
2023-02-24T07:56:33.191Z,9.43
2023-02-24T07:59:08.139Z,9.77
2023-02-24T08:01:42.332Z,9.80
2023-02-24T08:04:12.823Z,9.68
2023-02-24T08:06:47.932Z,10.50
2023-02-24T08:09:21.135Z,9.27
2023-02-24T08:11:55.865Z,11.55
2023-02-24T08:14:32.868Z,8.80
2023-02-24T08:17:07.131Z,10.32
2023-02-24T08:19:47.179Z,9.30
2023-02-24T08:22:24.517Z,11.18
2023-02-24T08:25:06.034Z,10.07
2023-02-24T08:27:43.550Z,10.70
2023-02-24T08:30:30.001Z,9.27
2023-02-24T08:33:00.109Z,9.77
2023-02-24T08:35:37.790Z,9.77
2023-02-24T08:38:18.959Z,10.40
2023-02-24T08:40:51.618Z,10.23
2023-02-24T08:43:33.313Z,9.43
2023-02-24T08:46:13.848Z,10.52
2023-02-24T08:48:47.954Z,10.38
2023-02-24T08:51:28.950Z,9.35
2023-02-24T08:54:01.285Z,10.80
2023-02-24T08:56:36.767Z,10.48
2023-02-24T08:59:07.014Z,9.95
2023-02-24T09:02:03.697Z,9.15
2023-02-24T09:04:34.893Z,9.20
2023-02-24T09:07:12.118Z,9.32
2023-02-24T09:09:42.701Z,10.30
2023-02-24T09:12:24.849Z,10.63
2023-02-24T09:15:04.994Z,11.75
2023-02-24T09:17:45.982Z,9.98
2023-02-24T09:20:41.965Z,9.02
2023-02-24T09:23:20.384Z,8.98
2023-02-24T09:25:54.690Z,10.85
2023-02-24T09:28:27.951Z,10.57
2023-02-24T09:30:59.222Z,11.38
2023-02-24T09:33:42.046Z,10.38
2023-02-24T09:36:30.559Z,11.38
2023-02-24T09:39:00.860Z,10.48
2023-02-24T09:41:54.867Z,11.90
2023-02-24T09:44:44.586Z,10.30
2023-02-24T09:47:57.436Z,10.07
2023-02-24T09:51:03.425Z,11.18
2023-02-24T09:53:49.748Z,9.82
2023-02-24T09:56:24.911Z,10.45
2023-02-24T09:59:13.017Z,10.93
2023-02-24T10:02:31.398Z,9.88
2023-02-24T10:05:28.788Z,10.23
2023-02-24T10:07:58.641Z,11.88
2023-02-24T10:10:36.082Z,10.15
2023-02-24T10:13:30.663Z,10.52
2023-02-24T10:16:07.329Z,9.07
2023-02-24T10:19:15.539Z,9.40
2023-02-24T10:22:03.517Z,10.88
2023-02-24T10:24:38.018Z,9.50
2023-02-24T10:27:16.821Z,9.43
2023-02-24T10:30:20.093Z,11.13
2023-02-24T10:32:59.114Z,12.43
2023-02-24T10:35:39.394Z,11.15
2023-02-24T10:38:07.597Z,9.52
2023-02-24T10:40:56.762Z,9.60
2023-02-24T10:43:30.714Z,10.63
2023-02-24T10:46:17.532Z,9.13
2023-02-24T10:49:01.681Z,11.38
2023-02-24T10:51:42.569Z,10.75
2023-02-24T10:54:45.367Z,10.55
2023-02-24T10:57:18.888Z,9.18
2023-02-24T11:00:18.845Z,10.18
2023-02-24T11:03:08.539Z,10.95
2023-02-24T11:06:04.408Z,9.38
2023-02-24T11:08:48.030Z,10.48
2023-02-24T11:11:29.995Z,8.48
2023-02-24T11:14:20.586Z,11.32
2023-02-24T11:17:14.874Z,12.15
2023-02-24T11:20:11.096Z,10.73
2023-02-24T11:22:46.174Z,10.13
2023-02-24T11:25:36.253Z,9.40
2023-02-24T11:28:06.227Z,9.85
2023-02-24T11:30:52.990Z,10.00
2023-02-24T11:33:42.801Z,9.02
2023-02-24T11:36:37.407Z,10.05
2023-02-24T11:39:37.546Z,9.43
2023-02-24T11:42:15.331Z,8.70
2023-02-24T11:45:03.461Z,12.18
2023-02-24T11:47:52.102Z,10.18
2023-02-24T11:51:02.352Z,10.73
2023-02-24T11:53:57.914Z,12.55
2023-02-24T11:56:33.839Z,10.63
2023-02-24T11:59:30.820Z,12.95
2023-02-24T12:02:39.027Z,10.60
2023-02-24T12:05:25.776Z,11.35
2023-02-24T12:08:06.129Z,11.35
2023-02-24T12:11:23.461Z,9.67
2023-02-24T12:14:03.256Z,13.52
2023-02-24T12:16:37.918Z,11.60
2023-02-24T12:19:21.163Z,12.18
2023-02-24T12:22:00.115Z,13.93
2023-02-24T12:24:28.336Z,12.25
2023-02-24T12:27:39.632Z,13.75
2023-02-24T12:30:34.259Z,10.95
2023-02-24T12:33:31.122Z,12.98
2023-02-24T12:36:14.738Z,12.15
2023-02-24T12:39:21.553Z,13.27
2023-02-24T12:42:21.014Z,14.18
2023-02-24T12:45:27.120Z,13.57
2023-02-24T12:48:24.660Z,14.30
2023-02-24T12:51:14.476Z,14.02
2023-02-24T12:54:05.731Z,13.80
2023-02-24T12:56:58.248Z,12.50
2023-02-24T12:59:32.326Z,12.07
2023-02-24T13:02:25.283Z,13.55
2023-02-24T13:05:45.310Z,14.43
2023-02-24T13:08:37.634Z,12.45
2023-02-24T13:11:28.311Z,12.60
2023-02-24T13:14:05.726Z,13.88
2023-02-24T13:16:36.695Z,12.80
2023-02-24T13:19:28.593Z,17.23
2023-02-24T13:22:31.108Z,12.98
2023-02-24T13:25:08.313Z,12.75
2023-02-24T13:27:43.356Z,12.02
2023-02-24T13:30:27.097Z,12.45
2023-02-24T13:33:04.872Z,12.93
2023-02-24T13:35:37.061Z,12.65
2023-02-24T13:38:22.383Z,13.98
2023-02-24T13:40:51.095Z,13.57
2023-02-24T13:43:29.374Z,14.27
2023-02-24T13:46:17.518Z,14.20
2023-02-24T13:49:13.698Z,13.30
2023-02-24T13:52:04.273Z,14.80
2023-02-24T13:55:19.994Z,13.50
2023-02-24T13:57:53.771Z,15.40
2023-02-24T14:00:46.075Z,14.05
2023-02-24T14:03:22.357Z,13.70
2023-02-24T14:05:52.947Z,16.27
2023-02-24T14:08:43.903Z,15.27
2023-02-24T14:11:17.125Z,14.40
2023-02-24T14:13:54.520Z,15.85
2023-02-24T14:16:33.425Z,15.95
2023-02-24T14:19:03.390Z,16.33
2023-02-24T14:21:34.340Z,15.68
2023-02-24T14:24:12.394Z,15.40
2023-02-24T14:26:54.957Z,14.55
2023-02-24T14:29:28.806Z,14.55
2023-02-24T14:32:03.787Z,16.02
2023-02-24T14:34:34.056Z,15.98
2023-02-24T14:37:04.402Z,16.85
2023-02-24T14:39:34.608Z,16.90
2023-02-24T14:42:09.726Z,16.98
2023-02-24T14:44:57.100Z,15.35
2023-02-24T14:47:29.013Z,16.15
2023-02-24T14:50:04.695Z,16.73
2023-02-24T14:52:44.132Z,16.65
2023-02-24T14:55:16.336Z,16.58
2023-02-24T14:58:06.394Z,17.13
2023-02-24T15:00:41.982Z,16.42
2023-02-24T15:03:13.530Z,16.63
2023-02-24T15:05:49.076Z,15.07
2023-02-24T15:08:36.986Z,16.45
2023-02-24T15:11:16.997Z,16.80
2023-02-24T15:13:50.567Z,18.75
2023-02-24T15:16:41.906Z,16.13
2023-02-24T15:19:45.967Z,17.83
2023-02-24T15:22:28.654Z,17.13
2023-02-24T15:25:28.171Z,17.95
2023-02-24T15:28:04.239Z,16.45
2023-02-24T15:30:55.822Z,16.65
2023-02-24T15:33:26.243Z,17.00
2023-02-24T15:36:00.173Z,17.42
2023-02-24T15:38:40.640Z,17.05
2023-02-24T15:41:11.449Z,16.10
2023-02-24T15:43:50.596Z,17.95
2023-02-24T15:46:37.545Z,20.63
2023-02-24T15:49:06.467Z,28.48
2023-02-24T15:51:46.392Z,27.63
2023-02-24T15:54:31.740Z,30.27
2023-02-24T15:57:02.898Z,26.33
2023-02-24T15:59:31.743Z,32.40
2023-02-24T16:01:59.935Z,21.40
2023-02-24T16:04:28.398Z,17.88
2023-02-24T16:06:58.305Z,18.70
2023-02-24T16:09:37.487Z,21.08
2023-02-24T16:12:13.571Z,19.27
2023-02-24T16:14:44.275Z,22.65
2023-02-24T16:17:41.780Z,24.37
2023-02-24T16:20:19.375Z,23.30
2023-02-24T16:22:48.250Z,28.92
2023-02-24T16:25:17.691Z,27.65
2023-02-24T16:27:46.767Z,24.38
2023-02-24T16:30:22.421Z,26.15
2023-02-24T16:32:51.609Z,26.15
2023-02-24T16:35:21.630Z,22.92
2023-02-24T16:37:50.611Z,23.35
2023-02-24T16:40:34.395Z,27.60
2023-02-24T16:43:03.607Z,24.10
2023-02-24T16:45:32.999Z,20.08
2023-02-24T16:48:05.542Z,22.27
2023-02-24T16:50:40.920Z,24.40
2023-02-24T16:53:17.848Z,27.33
2023-02-24T16:55:47.523Z,25.73
2023-02-24T16:58:17.712Z,22.52
2023-02-24T17:00:52.868Z,23.85
2023-02-24T17:03:27.253Z,23.35
2023-02-24T17:05:56.259Z,25.77
2023-02-24T17:08:24.691Z,23.55
2023-02-24T17:10:53.137Z,25.23
2023-02-24T17:13:22.912Z,24.35
2023-02-24T17:15:55.574Z,27.05
2023-02-24T17:18:25.932Z,26.73
2023-02-24T17:20:54.691Z,28.20
2023-02-24T17:23:22.826Z,25.55
2023-02-24T17:25:56.950Z,25.90
2023-02-24T17:28:26.153Z,23.55
2023-02-24T17:30:54.664Z,23.52
2023-02-24T17:33:23.072Z,23.08
2023-02-24T17:35:51.329Z,22.67
2023-02-24T17:38:22.560Z,21.38
2023-02-24T17:40:50.927Z,21.08
2023-02-24T17:43:19.385Z,20.63
2023-02-24T17:45:47.956Z,22.10
2023-02-24T17:48:16.885Z,20.65
2023-02-24T17:50:47.813Z,22.60
2023-02-24T17:53:16.460Z,19.83
2023-02-24T17:56:01.634Z,20.35
2023-02-24T17:58:31.752Z,20.80
2023-02-24T18:01:02.491Z,18.80
2023-02-24T18:03:32.212Z,19.43
2023-02-24T18:06:14.096Z,19.48
2023-02-24T18:08:42.627Z,20.45
2023-02-24T18:11:17.319Z,17.73
2023-02-24T18:13:46.156Z,18.30
2023-02-24T18:16:16.644Z,23.48
2023-02-24T18:18:45.010Z,20.73
2023-02-24T18:21:13.443Z,19.60
2023-02-24T18:23:42.349Z,20.73
2023-02-24T18:26:14.669Z,17.42
2023-02-24T18:28:43.936Z,18.40
2023-02-24T18:31:23.252Z,16.45
2023-02-24T18:33:52.521Z,21.85
2023-02-24T18:36:21.239Z,15.73
2023-02-24T18:38:50.946Z,18.13
2023-02-24T18:41:24.229Z,21.90
2023-02-24T18:43:57.651Z,18.98
2023-02-24T18:46:27.420Z,18.98
2023-02-24T18:48:58.789Z,18.88
2023-02-24T18:51:29.364Z,19.15
2023-02-24T18:54:00.782Z,18.17
2023-02-24T18:56:32.496Z,17.65
2023-02-24T18:59:02.544Z,18.48
2023-02-24T19:01:38.833Z,16.83
2023-02-24T19:04:09.164Z,17.98
2023-02-24T19:06:38.494Z,19.38
2023-02-24T19:09:11.507Z,15.00
2023-02-24T19:11:46.497Z,18.75
2023-02-24T19:14:27.003Z,16.58
2023-02-24T19:16:56.291Z,17.92
2023-02-24T19:19:25.827Z,13.75
2023-02-24T19:21:54.179Z,14.82
2023-02-24T19:24:22.536Z,13.38
2023-02-24T19:26:53.677Z,14.20
2023-02-24T19:29:22.573Z,13.98
2023-02-24T19:31:55.109Z,12.80
2023-02-24T19:34:23.817Z,18.15
2023-02-24T19:36:52.877Z,16.30
2023-02-24T19:39:21.537Z,16.95
2023-02-24T19:41:50.609Z,19.33
2023-02-24T19:44:20.974Z,18.55
2023-02-24T19:46:49.948Z,19.70
2023-02-24T19:49:18.554Z,19.85
2023-02-24T19:51:48.311Z,19.88
2023-02-24T19:54:17.145Z,17.13
2023-02-24T19:56:45.406Z,21.70
2023-02-24T19:59:14.039Z,20.83
2023-02-24T20:01:44.172Z,19.92
2023-02-24T20:04:13.228Z,21.52
2023-02-24T20:06:44.022Z,20.75
2023-02-24T20:09:23.805Z,20.00
2023-02-24T20:11:52.963Z,19.67
2023-02-24T20:14:24.515Z,19.63
2023-02-24T20:16:52.995Z,19.23
2023-02-24T20:19:21.743Z,16.73
2023-02-24T20:21:50.168Z,17.08
2023-02-24T20:24:19.186Z,15.43
2023-02-24T20:26:50.046Z,15.95
2023-02-24T20:29:21.048Z,14.10
2023-02-24T20:31:50.101Z,17.83
2023-02-24T20:34:18.852Z,16.23
2023-02-24T20:36:47.804Z,18.70
2023-02-24T20:39:16.376Z,17.67
2023-02-24T20:41:45.775Z,17.83
2023-02-24T20:44:14.375Z,17.40
2023-02-24T20:46:42.726Z,17.63
2023-02-24T20:49:15.183Z,18.27
2023-02-24T20:51:44.103Z,22.40
2023-02-24T20:54:14.064Z,21.00
2023-02-24T20:56:44.647Z,20.52
2023-02-24T20:59:19.681Z,19.33
2023-02-24T21:01:49.828Z,17.75
2023-02-24T21:04:21.367Z,18.15
2023-02-24T21:06:51.733Z,18.37
2023-02-24T21:09:20.060Z,18.30
2023-02-24T21:11:48.509Z,18.73
2023-02-24T21:14:18.057Z,15.60
2023-02-24T21:16:46.508Z,17.30
2023-02-24T21:19:15.236Z,17.58
2023-02-24T21:21:43.797Z,17.33
2023-02-24T21:24:11.984Z,15.27
2023-02-24T21:26:41.698Z,15.60
2023-02-24T21:29:10.904Z,14.70
2023-02-24T21:31:39.429Z,14.80
2023-02-24T21:34:11.681Z,13.90
2023-02-24T21:36:43.782Z,13.38
2023-02-24T21:39:15.489Z,12.38
2023-02-24T21:44:17.270Z,12.13
2023-02-24T21:46:46.010Z,12.23
2023-02-24T21:49:14.554Z,12.30
2023-02-24T21:51:43.122Z,11.20
2023-02-24T21:54:15.751Z,13.45
2023-02-24T21:56:44.636Z,12.30
2023-02-24T22:01:46.414Z,12.60
2023-02-24T22:04:19.438Z,11.48
2023-02-24T22:06:48.600Z,11.88
2023-02-24T22:09:20.212Z,12.48
2023-02-24T22:14:19.274Z,11.68
2023-02-24T22:16:48.432Z,13.52
2023-02-24T22:19:17.115Z,12.25
2023-02-24T22:21:46.362Z,12.85
2023-02-24T22:24:16.872Z,12.10
2023-02-24T22:26:45.740Z,13.25
2023-02-24T22:29:14.033Z,12.88
2023-02-24T22:31:48.383Z,12.52
2023-02-24T22:34:20.222Z,12.10
2023-02-24T22:37:43.716Z,13.35
2023-02-24T22:45:59.489Z,13.65
2023-02-24T22:53:26.106Z,12.63
2023-02-24T22:55:56.936Z,13.20
2023-02-24T22:58:25.766Z,14.13
2023-02-24T23:00:55.616Z,14.05
2023-02-24T23:03:28.722Z,14.68
2023-02-24T23:06:12.780Z,14.27
2023-02-24T23:08:44.085Z,15.48
2023-02-24T23:11:21.251Z,16.45
2023-02-24T23:13:51.471Z,17.20
2023-02-24T23:16:27.517Z,15.95
2023-02-24T23:18:58.787Z,15.85
2023-02-24T23:21:35.455Z,14.85
2023-02-24T23:24:05.702Z,15.82
2023-02-24T23:26:44.169Z,15.30
2023-02-24T23:29:15.571Z,15.77
2023-02-24T23:31:45.365Z,18.48
2023-02-24T23:34:14.664Z,16.40
2023-02-24T23:36:46.236Z,16.58
2023-02-24T23:39:18.212Z,16.65
2023-02-24T23:41:46.497Z,17.17
2023-02-24T23:44:14.626Z,16.42
2023-02-24T23:46:43.042Z,18.05
2023-02-24T23:49:11.603Z,14.88
2023-02-24T23:51:48.065Z,14.52
2023-02-24T23:54:20.586Z,12.68
2023-02-24T23:56:49.215Z,13.55
2023-02-24T23:59:17.326Z,11.30
